createdAt,value
2023-01-21T00:00:40.522Z,-0.58
2023-01-21T00:03:06.742Z,-0.53
2023-01-21T00:05:32.953Z,-0.54
2023-01-21T00:08:01.131Z,-1.01
2023-01-21T00:10:28.435Z,-0.56
2023-01-21T00:12:54.494Z,-0.98
2023-01-21T00:15:20.550Z,-0.67
2023-01-21T00:17:46.606Z,-0.81
2023-01-21T00:20:12.818Z,-0.64
2023-01-21T00:22:39.040Z,-0.81
2023-01-21T00:25:05.603Z,-0.90
2023-01-21T00:27:31.654Z,-0.82
2023-01-21T00:29:57.696Z,-0.82
2023-01-21T00:32:23.775Z,-0.82
2023-01-21T00:34:49.877Z,-0.90
2023-01-21T00:37:15.970Z,-0.95
2023-01-21T00:39:42.375Z,-0.85
2023-01-21T00:42:10.492Z,-0.92
2023-01-21T00:44:37.633Z,-0.87
2023-01-21T00:47:03.970Z,-1.01
2023-01-21T00:49:30.195Z,-0.89
2023-01-21T00:51:56.998Z,-2.64
2023-01-21T00:54:23.418Z,-0.96
2023-01-21T00:56:49.662Z,-1.16
2023-01-21T00:59:16.243Z,-2.13
2023-01-21T01:01:42.600Z,-1.14
2023-01-21T01:04:10.342Z,-1.05
2023-01-21T01:06:36.421Z,-2.57
2023-01-21T01:09:02.823Z,-1.51
2023-01-21T01:11:29.950Z,-1.24
2023-01-21T01:13:56.046Z,-1.21
2023-01-21T01:16:22.520Z,-1.32
2023-01-21T01:18:49.022Z,-1.33
2023-01-21T01:21:17.144Z,-1.33
2023-01-21T01:23:43.625Z,-1.49
2023-01-21T01:26:13.112Z,-1.45
2023-01-21T01:28:39.346Z,-1.31
2023-01-21T01:31:07.696Z,-1.20
2023-01-21T01:33:34.188Z,-1.57
2023-01-21T01:36:06.209Z,-1.33
2023-01-21T01:38:34.086Z,-1.38
2023-01-21T01:41:01.000Z,-1.32
2023-01-21T01:43:48.781Z,-1.48
2023-01-21T01:46:15.184Z,-1.56
2023-01-21T01:48:42.877Z,-1.63
2023-01-21T01:51:09.067Z,-1.57
2023-01-21T01:53:36.638Z,-4.05
2023-01-21T01:56:03.926Z,-1.51
2023-01-21T01:58:30.971Z,-3.13
2023-01-21T02:00:57.553Z,-1.78
2023-01-21T02:03:43.232Z,-1.71
2023-01-21T02:06:31.695Z,-1.87
2023-01-21T02:08:58.018Z,-1.75
2023-01-21T02:11:24.545Z,-1.66
2023-01-21T02:13:53.457Z,-1.96
2023-01-21T02:16:41.375Z,-1.74
2023-01-21T02:19:29.055Z,-3.84
2023-01-21T02:22:15.734Z,-2.01
2023-01-21T02:25:04.049Z,-4.00
2023-01-21T02:27:36.238Z,-2.06
2023-01-21T02:30:27.606Z,-2.04
2023-01-21T02:33:30.734Z,-1.90
2023-01-21T02:36:28.114Z,-2.06
2023-01-21T02:39:06.413Z,-1.99
2023-01-21T02:41:54.569Z,-1.99
2023-01-21T02:44:22.738Z,-2.03
2023-01-21T02:47:24.546Z,-2.00
2023-01-21T02:49:50.566Z,-1.93
2023-01-21T02:52:18.901Z,-2.07
2023-01-21T02:55:11.976Z,-2.16
2023-01-21T02:57:41.015Z,-2.20
2023-01-21T03:00:22.679Z,-2.22
2023-01-21T03:03:07.370Z,-2.18
2023-01-21T03:05:52.254Z,-2.24
2023-01-21T03:08:22.826Z,-2.14
2023-01-21T03:10:51.836Z,-2.21
2023-01-21T03:13:42.134Z,-2.16
2023-01-21T03:16:29.021Z,-2.15
2023-01-21T03:18:56.038Z,-2.12
2023-01-21T03:21:25.877Z,-2.21
2023-01-21T03:23:53.243Z,-2.20
2023-01-21T03:26:35.315Z,-2.61
2023-01-21T03:29:07.261Z,-2.31
2023-01-21T03:31:34.264Z,-3.68
2023-01-21T03:34:03.561Z,-2.88
2023-01-21T03:36:41.588Z,-2.23
2023-01-21T03:39:13.378Z,-2.42
2023-01-21T03:41:39.906Z,-2.17
2023-01-21T03:44:06.154Z,-2.31
2023-01-21T03:47:03.192Z,-2.28
2023-01-21T03:49:38.833Z,-2.40
2023-01-21T03:52:05.731Z,-2.43
2023-01-21T03:54:32.155Z,-2.46
2023-01-21T03:56:58.216Z,-2.44
2023-01-21T03:59:24.328Z,-2.29
2023-01-21T04:01:50.475Z,-2.27
2023-01-21T04:04:16.571Z,-2.52
2023-01-21T04:06:42.606Z,-2.37
2023-01-21T04:09:09.694Z,-2.28
2023-01-21T04:11:35.757Z,-2.40
2023-01-21T04:14:01.858Z,-2.26
2023-01-21T04:16:27.951Z,-2.26
2023-01-21T04:18:54.067Z,-2.23
2023-01-21T04:21:20.135Z,-2.38
2023-01-21T04:23:46.239Z,-2.36
2023-01-21T04:26:12.379Z,-2.23
2023-01-21T04:28:38.495Z,-2.17
2023-01-21T04:31:04.644Z,-2.04
2023-01-21T04:33:30.781Z,-2.38
2023-01-21T04:35:58.422Z,-2.06
2023-01-21T04:38:24.505Z,-2.01
2023-01-21T04:40:50.554Z,-2.08
2023-01-21T04:43:16.993Z,-1.96
2023-01-21T04:45:43.089Z,-1.89
2023-01-21T04:48:09.189Z,-1.90
2023-01-21T04:50:35.312Z,-4.25
2023-01-21T04:53:01.403Z,-1.81
2023-01-21T04:55:27.470Z,-1.81
2023-01-21T04:57:53.506Z,-1.95
2023-01-21T05:00:19.916Z,-2.01
2023-01-21T05:02:45.982Z,-1.95
2023-01-21T05:05:12.151Z,-1.85
2023-01-21T05:07:38.242Z,-2.58
2023-01-21T05:10:04.551Z,-1.88
2023-01-21T05:12:30.685Z,-1.80
2023-01-21T05:14:59.384Z,-1.71
2023-01-21T05:17:25.779Z,-1.75
2023-01-21T05:19:51.835Z,-1.53
2023-01-21T05:22:18.289Z,-6.74
2023-01-21T05:24:44.342Z,-1.62
2023-01-21T05:27:10.411Z,-1.56
2023-01-21T05:29:36.634Z,-1.48
2023-01-21T05:32:02.833Z,-1.40
2023-01-21T05:34:28.980Z,-1.32
2023-01-21T05:36:55.015Z,-1.31
2023-01-21T05:39:21.091Z,-1.55
2023-01-21T05:41:47.309Z,-1.35
2023-01-21T05:44:13.389Z,-1.28
2023-01-21T05:46:39.419Z,-1.30
2023-01-21T05:49:05.889Z,-1.38
2023-01-21T05:51:31.935Z,-1.24
2023-01-21T05:53:58.142Z,-1.20
2023-01-21T05:56:24.200Z,-1.01
2023-01-21T05:58:50.255Z,-0.90
2023-01-21T06:01:16.298Z,-0.85
2023-01-21T06:03:42.489Z,-0.68
2023-01-21T06:06:08.621Z,-2.37
2023-01-21T06:08:34.711Z,-0.87
2023-01-21T06:11:00.787Z,-0.61
2023-01-21T06:13:26.966Z,-0.39
2023-01-21T06:15:55.523Z,-0.30
2023-01-21T06:18:22.494Z,-0.26
2023-01-21T06:20:48.580Z,-0.41
2023-01-21T06:23:14.785Z,-0.44
2023-01-21T06:25:42.767Z,-0.24
2023-01-21T06:28:12.075Z,-0.34
2023-01-21T06:30:38.187Z,-0.17
2023-01-21T06:33:04.580Z,-0.08
2023-01-21T06:35:31.520Z,-0.08
2023-01-21T06:37:57.734Z,-2.41
2023-01-21T06:40:23.835Z,-0.09
2023-01-21T06:42:49.882Z,-0.14
2023-01-21T06:45:16.586Z,-0.14
2023-01-21T06:47:43.358Z,-0.15
2023-01-21T06:50:14.442Z,-0.30
2023-01-21T06:52:45.743Z,-0.03
2023-01-21T06:55:12.852Z,-0.61
2023-01-21T06:57:39.260Z,-0.47
2023-01-21T07:00:06.577Z,-1.00
2023-01-21T07:02:32.764Z,-2.64
2023-01-21T07:04:59.262Z,-0.63
2023-01-21T07:07:25.799Z,-0.35
2023-01-21T07:09:52.106Z,-0.29
2023-01-21T07:12:18.215Z,-0.23
2023-01-21T07:14:44.388Z,-0.54
2023-01-21T07:17:10.472Z,-0.22
2023-01-21T07:19:36.617Z,-0.61
2023-01-21T07:22:02.689Z,-0.26
2023-01-21T07:24:28.782Z,-0.40
2023-01-21T07:26:56.116Z,-0.58
2023-01-21T07:29:22.682Z,-0.81
2023-01-21T07:31:48.839Z,-1.15
2023-01-21T07:34:15.410Z,-1.02
2023-01-21T07:36:41.511Z,-0.63
2023-01-21T07:39:07.618Z,-0.62
2023-01-21T07:41:33.765Z,-1.45
2023-01-21T07:43:59.945Z,-0.94
2023-01-21T07:46:26.457Z,-1.19
2023-01-21T07:48:52.709Z,-2.07
2023-01-21T07:51:19.810Z,-1.14
2023-01-21T07:53:46.029Z,-1.50
2023-01-21T07:56:12.543Z,-3.01
2023-01-21T07:58:38.695Z,-0.88
2023-01-21T08:01:07.391Z,-1.17
2023-01-21T08:03:37.053Z,-1.06
2023-01-21T08:06:06.557Z,-0.77
2023-01-21T08:08:32.703Z,-0.99
2023-01-21T08:10:58.761Z,-0.93
2023-01-21T08:13:25.974Z,-0.77
2023-01-21T08:15:53.512Z,-0.25
2023-01-21T08:18:21.460Z,-0.67
2023-01-21T08:20:48.411Z,-1.46
2023-01-21T08:23:14.668Z,-1.13
2023-01-21T08:25:41.110Z,-0.67
2023-01-21T08:28:07.179Z,-0.94
2023-01-21T08:30:33.353Z,-0.78
2023-01-21T08:32:59.496Z,-1.07
2023-01-21T08:35:25.607Z,-0.89
2023-01-21T08:37:54.671Z,-0.73
2023-01-21T08:40:20.880Z,-0.89
2023-01-21T08:42:47.011Z,-0.79
2023-01-21T08:45:15.271Z,-0.51
2023-01-21T08:47:41.519Z,-0.05
2023-01-21T08:50:08.884Z,-0.28
2023-01-21T08:52:34.931Z,-0.02
2023-01-21T08:55:01.297Z,-0.37
2023-01-21T08:57:27.361Z,-0.17
2023-01-21T08:59:53.445Z,-0.18
2023-01-21T09:02:19.563Z,-0.67
2023-01-21T09:04:45.783Z,-0.30
2023-01-21T09:07:11.849Z,0.17
2023-01-21T09:09:37.948Z,-0.04
2023-01-21T09:12:07.358Z,0.30
2023-01-21T09:14:33.582Z,-0.72
2023-01-21T09:16:59.685Z,0.55
2023-01-21T09:19:26.611Z,-0.12
2023-01-21T09:21:54.778Z,0.45
2023-01-21T09:24:21.442Z,0.33
2023-01-21T09:26:47.495Z,0.53
2023-01-21T09:29:13.543Z,0.40
2023-01-21T09:31:39.745Z,0.21
2023-01-21T09:34:06.028Z,0.40
2023-01-21T09:36:34.036Z,0.48
2023-01-21T09:39:00.226Z,0.23
2023-01-21T09:41:41.490Z,0.74
2023-01-21T09:44:36.139Z,0.52
2023-01-21T09:47:23.280Z,0.33
2023-01-21T09:49:54.868Z,-0.24
2023-01-21T09:52:29.975Z,-0.26
2023-01-21T09:54:57.137Z,-0.01
2023-01-21T09:57:44.443Z,-0.13
2023-01-21T10:00:29.938Z,0.00
2023-01-21T10:03:12.349Z,0.18
2023-01-21T10:06:23.016Z,0.12
2023-01-21T10:08:58.965Z,-0.30
2023-01-21T10:11:29.406Z,-0.29
2023-01-21T10:14:13.510Z,-0.20
2023-01-21T10:16:45.653Z,-0.25
2023-01-21T10:19:17.132Z,-0.28
2023-01-21T10:21:51.136Z,-0.53
2023-01-21T10:24:23.581Z,-0.26
2023-01-21T10:26:52.649Z,-0.26
2023-01-21T10:29:20.816Z,0.22
2023-01-21T10:31:54.701Z,0.17
2023-01-21T10:34:20.793Z,0.27
2023-01-21T10:37:06.556Z,0.39
2023-01-21T10:39:44.550Z,0.21
2023-01-21T10:42:35.586Z,0.59
2023-01-21T10:45:20.645Z,0.72
2023-01-21T10:47:59.831Z,-0.20
2023-01-21T10:50:44.609Z,0.75
2023-01-21T10:53:25.608Z,0.85
2023-01-21T10:56:02.623Z,1.08
2023-01-21T10:58:39.947Z,0.92
2023-01-21T11:01:13.618Z,0.29
2023-01-21T11:03:46.824Z,0.90
2023-01-21T11:06:15.545Z,0.67
2023-01-21T11:08:44.479Z,1.15
2023-01-21T11:11:11.077Z,1.21
2023-01-21T11:13:37.177Z,0.98
2023-01-21T11:16:04.181Z,0.89
2023-01-21T11:18:36.843Z,1.24
2023-01-21T11:21:24.336Z,0.62
2023-01-21T11:23:56.393Z,1.11
2023-01-21T11:26:27.831Z,1.21
2023-01-21T11:29:06.950Z,0.87
2023-01-21T11:31:33.540Z,0.25
2023-01-21T11:34:16.590Z,0.27
2023-01-21T11:37:08.171Z,0.85
2023-01-21T11:39:40.866Z,1.35
2023-01-21T11:42:13.465Z,0.84
2023-01-21T11:45:00.778Z,1.59
2023-01-21T11:47:51.766Z,1.52
2023-01-21T11:50:28.266Z,1.32
2023-01-21T11:53:06.301Z,1.31
2023-01-21T11:55:33.606Z,1.13
2023-01-21T11:57:59.816Z,1.38
2023-01-21T12:00:29.034Z,1.30
2023-01-21T12:03:01.151Z,0.75
2023-01-21T12:05:32.673Z,1.06
2023-01-21T12:07:59.156Z,1.33
2023-01-21T12:10:51.401Z,1.62
2023-01-21T12:13:30.327Z,1.29
2023-01-21T12:16:19.999Z,0.75
2023-01-21T12:19:02.295Z,1.32
2023-01-21T12:22:01.005Z,0.59
2023-01-21T12:24:46.146Z,1.38
2023-01-21T12:27:18.407Z,0.71
2023-01-21T12:30:22.219Z,1.10
2023-01-21T12:32:55.995Z,1.03
2023-01-21T12:35:30.773Z,1.29
2023-01-21T12:38:05.834Z,1.06
2023-01-21T12:40:34.153Z,1.04
2023-01-21T12:43:06.128Z,1.24
2023-01-21T12:45:47.922Z,1.48
2023-01-21T12:48:20.018Z,1.03
2023-01-21T12:50:51.360Z,0.97
2023-01-21T12:53:40.114Z,1.53
2023-01-21T12:56:31.542Z,1.18
2023-01-21T12:59:03.444Z,0.96
2023-01-21T13:01:44.165Z,1.46
2023-01-21T13:04:29.952Z,1.59
2023-01-21T13:07:11.260Z,-0.34
2023-01-21T13:09:43.978Z,-0.69
2023-01-21T13:12:25.235Z,1.53
2023-01-21T13:15:04.055Z,1.51
2023-01-21T13:17:34.731Z,-0.76
2023-01-21T13:20:11.553Z,0.64
2023-01-21T13:22:59.466Z,1.36
2023-01-21T13:25:40.523Z,1.52
2023-01-21T13:28:28.070Z,1.49
2023-01-21T13:31:24.980Z,1.48
2023-01-21T13:34:15.586Z,1.28
2023-01-21T13:36:41.605Z,1.66
2023-01-21T13:39:23.379Z,1.38
2023-01-21T13:42:02.464Z,0.66
2023-01-21T13:44:47.386Z,1.43
2023-01-21T13:47:36.277Z,1.84
2023-01-21T13:50:02.288Z,1.62
2023-01-21T13:52:39.292Z,-0.21
2023-01-21T13:55:08.602Z,1.73
2023-01-21T13:57:37.584Z,1.55
2023-01-21T14:00:35.771Z,1.78
2023-01-21T14:03:01.834Z,1.28
2023-01-21T14:05:42.687Z,1.76
2023-01-21T14:08:29.735Z,1.62
2023-01-21T14:11:06.759Z,1.60
2023-01-21T14:13:56.119Z,1.54
2023-01-21T14:16:32.293Z,1.56
2023-01-21T14:19:01.382Z,1.86
2023-01-21T14:21:59.286Z,1.92
2023-01-21T14:24:50.953Z,2.04
2023-01-21T14:27:41.948Z,2.00
2023-01-21T14:30:22.584Z,1.93
2023-01-21T14:32:56.654Z,2.02
2023-01-21T14:35:32.232Z,2.12
2023-01-21T14:38:12.883Z,2.10
2023-01-21T14:40:48.118Z,1.88
2023-01-21T14:43:42.203Z,-2.69
2023-01-21T14:46:32.035Z,1.72
2023-01-21T14:49:07.422Z,2.18
2023-01-21T14:51:44.047Z,1.88
2023-01-21T14:54:17.790Z,2.01
2023-01-21T14:57:01.656Z,0.04
2023-01-21T14:59:41.071Z,1.03
2023-01-21T15:02:39.535Z,2.07
2023-01-21T15:05:09.737Z,2.12
2023-01-21T15:07:44.150Z,2.03
2023-01-21T15:10:18.233Z,1.87
2023-01-21T15:12:56.108Z,2.27
2023-01-21T15:15:30.132Z,2.09
2023-01-21T15:18:22.111Z,1.97
2023-01-21T15:20:57.352Z,2.08
2023-01-21T15:23:29.648Z,1.77
2023-01-21T15:26:10.521Z,1.78
2023-01-21T15:28:51.263Z,1.94
2023-01-21T15:31:22.787Z,2.21
2023-01-21T15:33:58.215Z,2.22
2023-01-21T15:36:31.351Z,1.74
2023-01-21T15:39:11.236Z,2.14
2023-01-21T15:42:04.467Z,2.16
2023-01-21T15:44:47.652Z,1.99
2023-01-21T15:47:30.958Z,1.69
2023-01-21T15:50:04.977Z,1.85
2023-01-21T15:52:49.358Z,1.96
2023-01-21T15:55:24.303Z,2.04
2023-01-21T15:57:56.404Z,2.11
2023-01-21T16:00:35.672Z,2.16
2023-01-21T16:03:29.940Z,1.83
2023-01-21T16:06:03.921Z,2.04
2023-01-21T16:08:52.736Z,2.02
2023-01-21T16:11:41.032Z,1.66
2023-01-21T16:14:38.123Z,1.82
2023-01-21T16:17:19.692Z,1.10
2023-01-21T16:19:49.735Z,1.43
2023-01-21T16:22:23.229Z,1.52
2023-01-21T16:24:52.728Z,1.70
2023-01-21T16:27:22.806Z,1.81
2023-01-21T16:30:04.165Z,2.00
2023-01-21T16:32:36.722Z,1.41
2023-01-21T16:35:03.151Z,1.98
2023-01-21T16:37:30.205Z,2.08
2023-01-21T16:40:19.004Z,1.95
2023-01-21T16:42:45.154Z,1.90
2023-01-21T16:45:25.264Z,0.98
2023-01-21T16:47:56.733Z,1.69
2023-01-21T16:50:30.305Z,0.75
2023-01-21T16:52:58.450Z,0.62
2023-01-21T16:55:31.530Z,1.49
2023-01-21T16:58:03.150Z,1.48
2023-01-21T17:00:31.538Z,1.56
2023-01-21T17:03:02.908Z,1.79
2023-01-21T17:05:35.390Z,1.55
2023-01-21T17:08:10.412Z,1.69
2023-01-21T17:10:38.811Z,1.46
2023-01-21T17:13:15.257Z,1.88
2023-01-21T17:15:57.908Z,1.84
2023-01-21T17:18:31.862Z,1.77
2023-01-21T17:21:06.829Z,1.80
2023-01-21T17:23:50.774Z,1.54
2023-01-21T17:26:26.573Z,1.91
2023-01-21T17:29:08.166Z,1.22
2023-01-21T17:31:44.437Z,2.00
2023-01-21T17:34:15.607Z,1.76
2023-01-21T17:36:49.533Z,1.78
2023-01-21T17:39:47.445Z,1.94
2023-01-21T17:42:20.949Z,1.33
2023-01-21T17:45:03.872Z,1.23
2023-01-21T17:47:32.761Z,1.46
2023-01-21T17:50:03.095Z,1.61
2023-01-21T17:52:29.313Z,1.75
2023-01-21T17:55:16.084Z,1.62
2023-01-21T17:57:42.373Z,1.35
2023-01-21T18:00:46.749Z,1.19
2023-01-21T18:03:17.285Z,1.38
2023-01-21T18:05:43.475Z,1.33
2023-01-21T18:08:16.069Z,0.87
2023-01-21T18:10:47.726Z,0.85
2023-01-21T18:13:16.724Z,0.64
2023-01-21T18:15:50.932Z,0.31
2023-01-21T18:18:24.938Z,-0.49
2023-01-21T18:20:55.692Z,1.05
2023-01-21T18:23:30.219Z,1.20
2023-01-21T18:26:00.990Z,1.19
2023-01-21T18:28:32.134Z,0.51
2023-01-21T18:31:09.760Z,-0.24
2023-01-21T18:33:40.258Z,1.37
2023-01-21T18:36:11.186Z,1.38
2023-01-21T18:38:41.701Z,1.32
2023-01-21T18:41:12.787Z,1.49
2023-01-21T18:43:43.249Z,1.42
2023-01-21T18:46:15.574Z,1.41
2023-01-21T18:48:48.162Z,1.65
2023-01-21T18:51:18.824Z,1.46
2023-01-21T18:53:49.519Z,1.47
2023-01-21T18:56:25.261Z,1.53
2023-01-21T18:58:56.133Z,1.68
2023-01-21T19:01:26.979Z,1.53
2023-01-21T19:03:57.416Z,1.44
2023-01-21T19:06:28.676Z,1.51
2023-01-21T19:09:00.649Z,1.36
2023-01-21T19:11:31.461Z,1.39
2023-01-21T19:14:06.116Z,1.13
2023-01-21T19:16:37.127Z,1.41
2023-01-21T19:19:12.435Z,1.48
2023-01-21T19:21:46.947Z,1.39
2023-01-21T19:24:17.469Z,1.36
2023-01-21T19:26:48.004Z,1.29
2023-01-21T19:29:24.058Z,1.61
2023-01-21T19:31:54.736Z,1.70
2023-01-21T19:34:26.016Z,1.32
2023-01-21T19:36:56.554Z,1.66
2023-01-21T19:39:31.998Z,1.78
2023-01-21T19:42:08.372Z,1.52
2023-01-21T19:44:39.798Z,1.57
2023-01-21T19:47:27.241Z,1.96
2023-01-21T19:49:53.488Z,1.60
2023-01-21T19:52:23.414Z,0.02
2023-01-21T19:54:55.179Z,1.84
2023-01-21T19:57:23.785Z,1.57
2023-01-21T19:59:53.928Z,1.74
2023-01-21T20:02:25.538Z,1.87
2023-01-21T20:04:56.003Z,1.60
2023-01-21T20:07:26.234Z,1.53
2023-01-21T20:09:56.118Z,1.32
2023-01-21T20:12:27.931Z,1.67
2023-01-21T20:14:58.899Z,1.54
2023-01-21T20:17:33.366Z,1.69
2023-01-21T20:19:59.420Z,0.73
2023-01-21T20:22:29.489Z,1.88
2023-01-21T20:25:00.332Z,2.08
2023-01-21T20:27:30.230Z,2.23
2023-01-21T20:30:16.734Z,2.05
2023-01-21T20:32:42.844Z,1.95
2023-01-21T20:35:08.988Z,1.92
2023-01-21T20:37:35.041Z,2.03
2023-01-21T20:40:05.266Z,2.09
2023-01-21T20:42:34.917Z,1.76
2023-01-21T20:45:05.693Z,2.01
2023-01-21T20:47:49.652Z,1.68
2023-01-21T20:50:22.549Z,1.73
2023-01-21T20:52:49.581Z,1.89
2023-01-21T20:55:25.493Z,1.73
2023-01-21T20:57:52.010Z,1.34
2023-01-21T21:00:26.432Z,1.61
2023-01-21T21:02:55.622Z,1.51
2023-01-21T21:05:22.072Z,-0.05
2023-01-21T21:07:48.142Z,1.58
2023-01-21T21:10:30.983Z,1.86
2023-01-21T21:13:03.388Z,1.77
2023-01-21T21:15:33.746Z,1.80
2023-01-21T21:18:00.662Z,1.67
2023-01-21T21:20:32.388Z,1.87
2023-01-21T21:23:00.955Z,1.13
2023-01-21T21:25:29.554Z,1.71
2023-01-21T21:27:55.960Z,1.58
2023-01-21T21:30:31.419Z,0.63
2023-01-21T21:32:59.186Z,1.67
2023-01-21T21:35:28.069Z,0.91
2023-01-21T21:37:58.812Z,1.67
2023-01-21T21:40:29.845Z,1.68
2023-01-21T21:43:19.586Z,1.50
2023-01-21T21:46:04.650Z,1.71
2023-01-21T21:48:37.723Z,1.40
2023-01-21T21:51:09.311Z,1.49
2023-01-21T21:53:40.863Z,1.64
2023-01-21T21:56:17.749Z,1.70
2023-01-21T21:58:44.081Z,1.30
2023-01-21T22:01:14.407Z,1.54
2023-01-21T22:03:44.963Z,1.34
2023-01-21T22:06:17.038Z,1.61
2023-01-21T22:08:43.397Z,1.03
2023-01-21T22:11:18.751Z,0.31
2023-01-21T22:13:50.612Z,1.46
2023-01-21T22:16:23.017Z,0.85
2023-01-21T22:18:59.367Z,1.70
2023-01-21T22:21:33.668Z,1.71
2023-01-21T22:24:02.567Z,1.77
2023-01-21T22:26:36.823Z,1.89
2023-01-21T22:29:07.334Z,1.67
2023-01-21T22:31:33.574Z,1.91
2023-01-21T22:33:59.979Z,1.66
2023-01-21T22:36:32.284Z,1.56
2023-01-21T22:39:03.064Z,1.19
2023-01-21T22:41:34.023Z,1.73
2023-01-21T22:44:09.626Z,1.46
2023-01-21T22:46:40.951Z,1.19
2023-01-21T22:49:11.671Z,1.76
2023-01-21T22:51:43.175Z,1.64
2023-01-21T22:54:14.083Z,1.59
2023-01-21T22:56:52.085Z,1.60
2023-01-21T22:59:24.202Z,1.25
2023-01-21T23:01:55.083Z,1.40
2023-01-21T23:04:25.952Z,1.92
2023-01-21T23:06:56.939Z,1.49
2023-01-21T23:09:30.886Z,1.35
2023-01-21T23:12:00.894Z,1.41
2023-01-21T23:14:31.384Z,-3.26
2023-01-21T23:17:04.055Z,1.55
2023-01-21T23:19:34.022Z,1.67
2023-01-21T23:22:04.194Z,0.94
2023-01-21T23:24:33.951Z,1.74
2023-01-21T23:27:05.634Z,1.39
2023-01-21T23:29:34.956Z,1.97
2023-01-21T23:32:05.307Z,1.66
2023-01-21T23:34:37.118Z,1.64
2023-01-21T23:37:07.937Z,1.93
2023-01-21T23:39:37.861Z,1.91
2023-01-21T23:42:07.761Z,2.04
2023-01-21T23:44:38.602Z,1.96
2023-01-21T23:47:08.770Z,1.74
2023-01-21T23:49:38.994Z,2.22
2023-01-21T23:52:11.841Z,2.09
2023-01-21T23:54:45.332Z,1.52
2023-01-21T23:57:12.725Z,1.65
2023-01-21T23:59:43.409Z,1.60
